sensor_id;sensor_type;location;lat;lon;timestamp;temperature;humidity
43346;DHT22;28937;51.160;4.146;2023-04-05T00:00:28;11.00;74.50
43346;DHT22;28937;51.160;4.146;2023-04-05T00:02:56;11.00;75.20
43346;DHT22;28937;51.160;4.146;2023-04-05T00:05:24;11.00;75.50
43346;DHT22;28937;51.160;4.146;2023-04-05T00:07:59;11.00;75.90
43346;DHT22;28937;51.160;4.146;2023-04-05T00:10:29;11.00;75.90
43346;DHT22;28937;51.160;4.146;2023-04-05T00:12:56;10.90;75.90
43346;DHT22;28937;51.160;4.146;2023-04-05T00:15:22;10.90;76.20
43346;DHT22;28937;51.160;4.146;2023-04-05T00:17:48;10.90;76.30
43346;DHT22;28937;51.160;4.146;2023-04-05T00:20:13;10.90;76.20
43346;DHT22;28937;51.160;4.146;2023-04-05T00:22:40;10.80;76.30
43346;DHT22;28937;51.160;4.146;2023-04-05T00:25:08;10.80;76.20
43346;DHT22;28937;51.160;4.146;2023-04-05T00:27:33;10.70;76.60
43346;DHT22;28937;51.160;4.146;2023-04-05T00:29:59;10.70;76.10
43346;DHT22;28937;51.160;4.146;2023-04-05T00:32:25;10.70;76.30
43346;DHT22;28937;51.160;4.146;2023-04-05T00:34:51;10.70;76.70
43346;DHT22;28937;51.160;4.146;2023-04-05T00:37:16;10.70;77.00
43346;DHT22;28937;51.160;4.146;2023-04-05T00:39:42;10.70;76.90
43346;DHT22;28937;51.160;4.146;2023-04-05T00:42:07;10.70;76.90
43346;DHT22;28937;51.160;4.146;2023-04-05T00:44:34;10.70;77.20
43346;DHT22;28937;51.160;4.146;2023-04-05T00:47:04;10.60;77.00
43346;DHT22;28937;51.160;4.146;2023-04-05T00:49:31;10.60;77.40
43346;DHT22;28937;51.160;4.146;2023-04-05T00:51:57;10.60;77.60
43346;DHT22;28937;51.160;4.146;2023-04-05T00:54:27;10.60;77.70
43346;DHT22;28937;51.160;4.146;2023-04-05T00:56:57;10.60;77.80
43346;DHT22;28937;51.160;4.146;2023-04-05T00:59:24;10.60;78.20
43346;DHT22;28937;51.160;4.146;2023-04-05T01:01:58;10.50;77.60
43346;DHT22;28937;51.160;4.146;2023-04-05T01:04:26;10.60;77.90
43346;DHT22;28937;51.160;4.146;2023-04-05T01:07:04;10.40;78.00
43346;DHT22;28937;51.160;4.146;2023-04-05T01:09:58;10.40;78.20
43346;DHT22;28937;51.160;4.146;2023-04-05T01:12:29;10.50;78.60
43346;DHT22;28937;51.160;4.146;2023-04-05T01:14:58;10.50;78.30
43346;DHT22;28937;51.160;4.146;2023-04-05T01:17:26;10.40;78.70
43346;DHT22;28937;51.160;4.146;2023-04-05T01:20:05;10.40;78.70
43346;DHT22;28937;51.160;4.146;2023-04-05T01:25:56;10.40;78.30
43346;DHT22;28937;51.160;4.146;2023-04-05T01:36:55;10.40;78.60
43346;DHT22;28937;51.160;4.146;2023-04-05T01:39:22;10.30;79.20
43346;DHT22;28937;51.160;4.146;2023-04-05T01:41:48;10.30;79.10
43346;DHT22;28937;51.160;4.146;2023-04-05T01:44:14;10.30;79.20
43346;DHT22;28937;51.160;4.146;2023-04-05T01:46:40;10.30;79.00
43346;DHT22;28937;51.160;4.146;2023-04-05T01:49:06;10.20;79.00
43346;DHT22;28937;51.160;4.146;2023-04-05T01:51:32;10.20;79.00
43346;DHT22;28937;51.160;4.146;2023-04-05T01:53:57;10.20;79.10
43346;DHT22;28937;51.160;4.146;2023-04-05T01:56:23;10.10;79.20
43346;DHT22;28937;51.160;4.146;2023-04-05T01:58:48;10.10;79.40
43346;DHT22;28937;51.160;4.146;2023-04-05T02:01:14;10.10;79.50
43346;DHT22;28937;51.160;4.146;2023-04-05T02:03:39;10.10;79.70
43346;DHT22;28937;51.160;4.146;2023-04-05T02:06:05;10.10;79.50
43346;DHT22;28937;51.160;4.146;2023-04-05T02:08:31;10.00;79.80
43346;DHT22;28937;51.160;4.146;2023-04-05T02:10:56;10.10;80.10
43346;DHT22;28937;51.160;4.146;2023-04-05T02:13:22;10.10;80.10
43346;DHT22;28937;51.160;4.146;2023-04-05T02:15:48;10.00;80.00
43346;DHT22;28937;51.160;4.146;2023-04-05T02:18:14;10.00;80.20
43346;DHT22;28937;51.160;4.146;2023-04-05T02:20:41;10.00;80.20
43346;DHT22;28937;51.160;4.146;2023-04-05T02:23:07;10.00;80.30
43346;DHT22;28937;51.160;4.146;2023-04-05T02:25:33;9.90;80.00
43346;DHT22;28937;51.160;4.146;2023-04-05T02:27:58;10.00;80.50
43346;DHT22;28937;51.160;4.146;2023-04-05T02:30:24;9.90;80.40
43346;DHT22;28937;51.160;4.146;2023-04-05T02:32:50;10.00;79.90
43346;DHT22;28937;51.160;4.146;2023-04-05T02:35:16;9.90;80.30
43346;DHT22;28937;51.160;4.146;2023-04-05T02:37:41;10.00;80.10
43346;DHT22;28937;51.160;4.146;2023-04-05T02:40:12;10.00;80.10
43346;DHT22;28937;51.160;4.146;2023-04-05T02:42:39;9.90;80.30
43346;DHT22;28937;51.160;4.146;2023-04-05T02:45:05;9.90;80.40
43346;DHT22;28937;51.160;4.146;2023-04-05T02:47:32;9.90;80.80
43346;DHT22;28937;51.160;4.146;2023-04-05T02:49:58;9.80;80.80
43346;DHT22;28937;51.160;4.146;2023-04-05T02:52:24;9.80;81.10
43346;DHT22;28937;51.160;4.146;2023-04-05T02:54:49;9.90;81.10
43346;DHT22;28937;51.160;4.146;2023-04-05T02:57:15;9.90;80.80
43346;DHT22;28937;51.160;4.146;2023-04-05T02:59:40;9.80;81.20
43346;DHT22;28937;51.160;4.146;2023-04-05T03:02:08;9.90;81.00
43346;DHT22;28937;51.160;4.146;2023-04-05T03:04:34;9.80;81.30
43346;DHT22;28937;51.160;4.146;2023-04-05T03:07:03;9.80;81.90
43346;DHT22;28937;51.160;4.146;2023-04-05T03:09:29;9.80;81.30
43346;DHT22;28937;51.160;4.146;2023-04-05T03:12:04;9.80;81.50
43346;DHT22;28937;51.160;4.146;2023-04-05T03:14:30;9.80;81.60
43346;DHT22;28937;51.160;4.146;2023-04-05T03:16:56;9.80;81.40
43346;DHT22;28937;51.160;4.146;2023-04-05T03:19:22;9.80;81.30
43346;DHT22;28937;51.160;4.146;2023-04-05T03:21:48;9.70;81.50
43346;DHT22;28937;51.160;4.146;2023-04-05T03:24:14;9.70;81.70
43346;DHT22;28937;51.160;4.146;2023-04-05T03:26:42;9.70;81.90
43346;DHT22;28937;51.160;4.146;2023-04-05T03:29:08;9.70;81.80
43346;DHT22;28937;51.160;4.146;2023-04-05T03:31:33;9.60;82.00
43346;DHT22;28937;51.160;4.146;2023-04-05T03:33:59;9.60;81.90
43346;DHT22;28937;51.160;4.146;2023-04-05T03:36:24;9.60;82.00
43346;DHT22;28937;51.160;4.146;2023-04-05T03:38:53;9.60;82.10
43346;DHT22;28937;51.160;4.146;2023-04-05T03:41:20;9.50;82.10
43346;DHT22;28937;51.160;4.146;2023-04-05T03:43:45;9.50;82.10
43346;DHT22;28937;51.160;4.146;2023-04-05T03:46:11;9.50;82.30
43346;DHT22;28937;51.160;4.146;2023-04-05T03:48:37;9.50;82.20
43346;DHT22;28937;51.160;4.146;2023-04-05T03:51:02;9.50;82.10
43346;DHT22;28937;51.160;4.146;2023-04-05T03:53:28;9.40;82.00
43346;DHT22;28937;51.160;4.146;2023-04-05T03:55:54;9.50;82.40
43346;DHT22;28937;51.160;4.146;2023-04-05T03:58:20;9.40;82.20
43346;DHT22;28937;51.160;4.146;2023-04-05T04:00:46;9.40;82.30
43346;DHT22;28937;51.160;4.146;2023-04-05T04:03:11;9.40;82.50
43346;DHT22;28937;51.160;4.146;2023-04-05T04:05:38;9.40;82.50
43346;DHT22;28937;51.160;4.146;2023-04-05T04:08:07;9.30;82.30
43346;DHT22;28937;51.160;4.146;2023-04-05T04:10:34;9.30;82.30
43346;DHT22;28937;51.160;4.146;2023-04-05T04:12:59;9.30;82.60
43346;DHT22;28937;51.160;4.146;2023-04-05T04:15:25;9.30;82.70
43346;DHT22;28937;51.160;4.146;2023-04-05T04:17:50;9.30;82.70
43346;DHT22;28937;51.160;4.146;2023-04-05T04:20:16;9.30;82.60
43346;DHT22;28937;51.160;4.146;2023-04-05T04:22:42;9.30;82.80
43346;DHT22;28937;51.160;4.146;2023-04-05T04:25:09;9.20;82.90
43346;DHT22;28937;51.160;4.146;2023-04-05T04:27:37;9.20;82.90
43346;DHT22;28937;51.160;4.146;2023-04-05T04:30:06;9.20;82.70
43346;DHT22;28937;51.160;4.146;2023-04-05T04:32:32;9.20;83.00
43346;DHT22;28937;51.160;4.146;2023-04-05T04:35:21;9.20;82.80
43346;DHT22;28937;51.160;4.146;2023-04-05T04:38:05;9.10;83.00
43346;DHT22;28937;51.160;4.146;2023-04-05T04:43:12;9.10;83.00
43346;DHT22;28937;51.160;4.146;2023-04-05T04:45:48;9.10;82.90
43346;DHT22;28937;51.160;4.146;2023-04-05T04:48:14;9.10;82.80
43346;DHT22;28937;51.160;4.146;2023-04-05T04:50:41;9.00;83.00
43346;DHT22;28937;51.160;4.146;2023-04-05T04:53:08;9.10;83.10
43346;DHT22;28937;51.160;4.146;2023-04-05T04:55:34;9.10;83.20
43346;DHT22;28937;51.160;4.146;2023-04-05T04:58:01;9.10;83.10
43346;DHT22;28937;51.160;4.146;2023-04-05T05:00:34;9.20;82.80
43346;DHT22;28937;51.160;4.146;2023-04-05T05:03:00;9.20;82.80
43346;DHT22;28937;51.160;4.146;2023-04-05T05:05:26;9.20;82.90
43346;DHT22;28937;51.160;4.146;2023-04-05T05:07:52;9.00;83.60
43346;DHT22;28937;51.160;4.146;2023-04-05T05:10:18;8.80;84.40
43346;DHT22;28937;51.160;4.146;2023-04-05T05:12:44;8.80;84.90
43346;DHT22;28937;51.160;4.146;2023-04-05T05:15:11;8.80;84.80
43346;DHT22;28937;51.160;4.146;2023-04-05T05:17:36;8.80;84.60
43346;DHT22;28937;51.160;4.146;2023-04-05T05:20:04;8.80;84.60
43346;DHT22;28937;51.160;4.146;2023-04-05T05:22:31;8.70;84.90
43346;DHT22;28937;51.160;4.146;2023-04-05T05:24:56;8.70;85.90
43346;DHT22;28937;51.160;4.146;2023-04-05T05:27:22;8.70;85.40
43346;DHT22;28937;51.160;4.146;2023-04-05T05:29:47;8.70;85.40
43346;DHT22;28937;51.160;4.146;2023-04-05T05:32:13;8.70;85.20
43346;DHT22;28937;51.160;4.146;2023-04-05T05:34:41;8.70;85.30
43346;DHT22;28937;51.160;4.146;2023-04-05T05:37:10;8.80;85.40
43346;DHT22;28937;51.160;4.146;2023-04-05T05:39:36;8.70;85.40
43346;DHT22;28937;51.160;4.146;2023-04-05T05:42:02;8.70;85.40
43346;DHT22;28937;51.160;4.146;2023-04-05T05:44:28;8.70;85.30
43346;DHT22;28937;51.160;4.146;2023-04-05T05:46:54;8.70;86.00
43346;DHT22;28937;51.160;4.146;2023-04-05T05:49:20;8.80;85.50
43346;DHT22;28937;51.160;4.146;2023-04-05T05:51:46;8.80;85.50
43346;DHT22;28937;51.160;4.146;2023-04-05T05:54:12;8.80;84.70
43346;DHT22;28937;51.160;4.146;2023-04-05T05:56:37;8.80;84.40
43346;DHT22;28937;51.160;4.146;2023-04-05T05:59:03;8.80;84.60
43346;DHT22;28937;51.160;4.146;2023-04-05T06:01:28;8.80;85.00
43346;DHT22;28937;51.160;4.146;2023-04-05T06:03:54;8.80;85.70
43346;DHT22;28937;51.160;4.146;2023-04-05T06:06:21;8.80;85.10
43346;DHT22;28937;51.160;4.146;2023-04-05T06:08:47;8.80;85.20
43346;DHT22;28937;51.160;4.146;2023-04-05T06:11:20;8.80;85.80
43346;DHT22;28937;51.160;4.146;2023-04-05T06:13:49;9.00;86.70
43346;DHT22;28937;51.160;4.146;2023-04-05T06:16:21;9.00;86.90
43346;DHT22;28937;51.160;4.146;2023-04-05T06:18:48;9.10;86.90
43346;DHT22;28937;51.160;4.146;2023-04-05T06:21:14;9.20;86.60
43346;DHT22;28937;51.160;4.146;2023-04-05T06:23:43;9.30;86.50
43346;DHT22;28937;51.160;4.146;2023-04-05T06:26:15;9.40;86.20
43346;DHT22;28937;51.160;4.146;2023-04-05T06:28:43;9.40;85.60
43346;DHT22;28937;51.160;4.146;2023-04-05T06:31:08;9.50;85.30
43346;DHT22;28937;51.160;4.146;2023-04-05T06:33:34;9.50;85.00
43346;DHT22;28937;51.160;4.146;2023-04-05T06:35:59;9.60;84.90
43346;DHT22;28937;51.160;4.146;2023-04-05T06:38:25;9.60;84.70
43346;DHT22;28937;51.160;4.146;2023-04-05T06:40:51;9.60;84.40
43346;DHT22;28937;51.160;4.146;2023-04-05T06:43:16;9.70;84.40
43346;DHT22;28937;51.160;4.146;2023-04-05T06:45:42;9.80;84.40
43346;DHT22;28937;51.160;4.146;2023-04-05T06:48:07;9.80;84.40
43346;DHT22;28937;51.160;4.146;2023-04-05T06:50:33;9.90;84.10
43346;DHT22;28937;51.160;4.146;2023-04-05T06:52:59;9.90;83.70
43346;DHT22;28937;51.160;4.146;2023-04-05T06:55:24;9.90;83.50
43346;DHT22;28937;51.160;4.146;2023-04-05T06:57:50;10.00;83.90
43346;DHT22;28937;51.160;4.146;2023-04-05T07:00:15;10.10;83.60
43346;DHT22;28937;51.160;4.146;2023-04-05T07:02:42;10.10;83.70
43346;DHT22;28937;51.160;4.146;2023-04-05T07:05:07;10.10;82.30
43346;DHT22;28937;51.160;4.146;2023-04-05T07:07:38;10.10;82.20
43346;DHT22;28937;51.160;4.146;2023-04-05T07:10:04;10.20;81.90
43346;DHT22;28937;51.160;4.146;2023-04-05T07:12:29;10.20;82.50
43346;DHT22;28937;51.160;4.146;2023-04-05T07:14:56;10.30;82.30
43346;DHT22;28937;51.160;4.146;2023-04-05T07:17:23;10.30;83.00
43346;DHT22;28937;51.160;4.146;2023-04-05T07:19:48;10.40;82.50
43346;DHT22;28937;51.160;4.146;2023-04-05T07:22:14;10.40;82.70
43346;DHT22;28937;51.160;4.146;2023-04-05T07:24:40;10.40;82.50
43346;DHT22;28937;51.160;4.146;2023-04-05T07:27:05;10.50;82.10
43346;DHT22;28937;51.160;4.146;2023-04-05T07:29:31;10.50;82.30
43346;DHT22;28937;51.160;4.146;2023-04-05T07:31:56;10.60;81.40
43346;DHT22;28937;51.160;4.146;2023-04-05T07:34:22;10.60;81.60
43346;DHT22;28937;51.160;4.146;2023-04-05T07:36:47;10.70;82.20
43346;DHT22;28937;51.160;4.146;2023-04-05T07:39:14;10.70;82.40
43346;DHT22;28937;51.160;4.146;2023-04-05T07:41:40;10.80;81.30
43346;DHT22;28937;51.160;4.146;2023-04-05T07:44:05;10.80;80.10
43346;DHT22;28937;51.160;4.146;2023-04-05T07:46:31;10.90;80.70
43346;DHT22;28937;51.160;4.146;2023-04-05T07:48:57;10.90;80.70
43346;DHT22;28937;51.160;4.146;2023-04-05T07:51:22;11.10;80.30
43346;DHT22;28937;51.160;4.146;2023-04-05T07:53:48;11.20;81.40
43346;DHT22;28937;51.160;4.146;2023-04-05T07:56:14;11.30;80.00
43346;DHT22;28937;51.160;4.146;2023-04-05T07:58:40;11.40;80.40
43346;DHT22;28937;51.160;4.146;2023-04-05T08:01:07;11.50;80.60
43346;DHT22;28937;51.160;4.146;2023-04-05T08:03:34;11.60;80.70
43346;DHT22;28937;51.160;4.146;2023-04-05T08:06:14;11.70;79.20
43346;DHT22;28937;51.160;4.146;2023-04-05T08:08:42;11.80;79.30
43346;DHT22;28937;51.160;4.146;2023-04-05T08:11:08;11.80;77.50
43346;DHT22;28937;51.160;4.146;2023-04-05T08:13:34;11.90;76.40
43346;DHT22;28937;51.160;4.146;2023-04-05T08:16:01;11.90;77.30
43346;DHT22;28937;51.160;4.146;2023-04-05T08:18:27;12.00;76.60
43346;DHT22;28937;51.160;4.146;2023-04-05T08:20:53;12.00;76.60
43346;DHT22;28937;51.160;4.146;2023-04-05T08:23:19;12.10;77.20
43346;DHT22;28937;51.160;4.146;2023-04-05T08:25:45;12.20;78.30
43346;DHT22;28937;51.160;4.146;2023-04-05T08:28:10;12.20;78.10
43346;DHT22;28937;51.160;4.146;2023-04-05T08:30:37;12.40;76.60
43346;DHT22;28937;51.160;4.146;2023-04-05T08:33:03;12.40;76.60
43346;DHT22;28937;51.160;4.146;2023-04-05T08:35:29;12.50;78.70
43346;DHT22;28937;51.160;4.146;2023-04-05T08:37:55;12.60;76.50
43346;DHT22;28937;51.160;4.146;2023-04-05T08:40:22;12.60;75.30
43346;DHT22;28937;51.160;4.146;2023-04-05T08:43:04;12.60;78.40
43346;DHT22;28937;51.160;4.146;2023-04-05T08:45:33;12.70;78.70
43346;DHT22;28937;51.160;4.146;2023-04-05T08:48:01;12.70;76.20
43346;DHT22;28937;51.160;4.146;2023-04-05T08:50:26;12.70;73.70
43346;DHT22;28937;51.160;4.146;2023-04-05T08:52:52;12.80;74.90
43346;DHT22;28937;51.160;4.146;2023-04-05T08:55:17;12.80;73.40
43346;DHT22;28937;51.160;4.146;2023-04-05T08:57:49;12.90;75.60
43346;DHT22;28937;51.160;4.146;2023-04-05T09:00:15;12.90;74.70
43346;DHT22;28937;51.160;4.146;2023-04-05T09:02:43;13.00;76.20
43346;DHT22;28937;51.160;4.146;2023-04-05T09:05:12;13.00;74.50
43346;DHT22;28937;51.160;4.146;2023-04-05T09:07:40;13.00;72.30
43346;DHT22;28937;51.160;4.146;2023-04-05T09:10:07;13.10;71.90
43346;DHT22;28937;51.160;4.146;2023-04-05T09:12:34;13.00;72.50
43346;DHT22;28937;51.160;4.146;2023-04-05T09:15:00;13.10;72.70
43346;DHT22;28937;51.160;4.146;2023-04-05T09:17:27;13.10;71.50
43346;DHT22;28937;51.160;4.146;2023-04-05T09:19:53;13.10;71.60
43346;DHT22;28937;51.160;4.146;2023-04-05T09:22:18;13.10;71.60
43346;DHT22;28937;51.160;4.146;2023-04-05T09:24:47;13.10;74.10
43346;DHT22;28937;51.160;4.146;2023-04-05T09:27:14;13.10;75.10
43346;DHT22;28937;51.160;4.146;2023-04-05T09:29:43;13.20;74.80
43346;DHT22;28937;51.160;4.146;2023-04-05T09:32:10;13.20;75.50
43346;DHT22;28937;51.160;4.146;2023-04-05T09:34:37;13.20;74.80
43346;DHT22;28937;51.160;4.146;2023-04-05T09:39:39;13.20;72.70
43346;DHT22;28937;51.160;4.146;2023-04-05T09:44:47;13.20;73.80
43346;DHT22;28937;51.160;4.146;2023-04-05T09:47:18;13.30;75.70
43346;DHT22;28937;51.160;4.146;2023-04-05T09:49:44;13.30;76.40
43346;DHT22;28937;51.160;4.146;2023-04-05T09:52:21;13.30;76.10
43346;DHT22;28937;51.160;4.146;2023-04-05T09:54:52;13.30;74.80
43346;DHT22;28937;51.160;4.146;2023-04-05T09:57:18;13.30;75.20
43346;DHT22;28937;51.160;4.146;2023-04-05T09:59:46;13.30;72.40
43346;DHT22;28937;51.160;4.146;2023-04-05T10:02:12;13.30;72.20
43346;DHT22;28937;51.160;4.146;2023-04-05T10:04:39;13.40;69.10
43346;DHT22;28937;51.160;4.146;2023-04-05T10:07:10;13.30;67.60
43346;DHT22;28937;51.160;4.146;2023-04-05T10:09:42;13.30;67.10
43346;DHT22;28937;51.160;4.146;2023-04-05T10:12:09;13.30;70.50
43346;DHT22;28937;51.160;4.146;2023-04-05T10:14:38;13.30;72.30
43346;DHT22;28937;51.160;4.146;2023-04-05T10:17:23;13.40;72.60
43346;DHT22;28937;51.160;4.146;2023-04-05T10:20:25;13.50;74.40
43346;DHT22;28937;51.160;4.146;2023-04-05T10:28:30;13.40;72.10
43346;DHT22;28937;51.160;4.146;2023-04-05T10:39:12;13.60;75.40
43346;DHT22;28937;51.160;4.146;2023-04-05T10:41:46;13.60;69.60
43346;DHT22;28937;51.160;4.146;2023-04-05T10:44:12;13.60;75.30
43346;DHT22;28937;51.160;4.146;2023-04-05T10:46:40;13.60;75.30
43346;DHT22;28937;51.160;4.146;2023-04-05T10:51:45;13.70;76.90
43346;DHT22;28937;51.160;4.146;2023-04-05T10:54:12;13.70;74.20
43346;DHT22;28937;51.160;4.146;2023-04-05T10:56:39;13.70;73.00
43346;DHT22;28937;51.160;4.146;2023-04-05T10:59:06;13.80;70.30
43346;DHT22;28937;51.160;4.146;2023-04-05T11:01:32;13.70;71.10
43346;DHT22;28937;51.160;4.146;2023-04-05T11:06:35;13.80;67.70
43346;DHT22;28937;51.160;4.146;2023-04-05T11:09:09;13.80;69.70
43346;DHT22;28937;51.160;4.146;2023-04-05T11:11:43;13.80;71.00
43346;DHT22;28937;51.160;4.146;2023-04-05T11:14:21;13.80;78.90
43346;DHT22;28937;51.160;4.146;2023-04-05T11:16:51;13.90;78.20
43346;DHT22;28937;51.160;4.146;2023-04-05T11:19:18;13.90;74.00
43346;DHT22;28937;51.160;4.146;2023-04-05T11:21:44;14.00;72.80
43346;DHT22;28937;51.160;4.146;2023-04-05T11:24:12;13.90;68.70
43346;DHT22;28937;51.160;4.146;2023-04-05T11:29:14;13.90;75.70
43346;DHT22;28937;51.160;4.146;2023-04-05T11:32:12;13.90;69.80
43346;DHT22;28937;51.160;4.146;2023-04-05T11:34:41;13.90;68.70
43346;DHT22;28937;51.160;4.146;2023-04-05T11:37:06;13.90;66.90
43346;DHT22;28937;51.160;4.146;2023-04-05T11:39:32;13.90;67.20
43346;DHT22;28937;51.160;4.146;2023-04-05T11:42:01;13.90;67.40
43346;DHT22;28937;51.160;4.146;2023-04-05T11:47:08;13.90;65.80
43346;DHT22;28937;51.160;4.146;2023-04-05T11:49:36;13.90;66.50
43346;DHT22;28937;51.160;4.146;2023-04-05T11:52:16;13.90;71.00
43346;DHT22;28937;51.160;4.146;2023-04-05T11:54:42;14.00;72.00
43346;DHT22;28937;51.160;4.146;2023-04-05T11:57:12;14.00;67.90
43346;DHT22;28937;51.160;4.146;2023-04-05T11:59:38;14.00;69.40
43346;DHT22;28937;51.160;4.146;2023-04-05T12:02:05;14.00;69.20
43346;DHT22;28937;51.160;4.146;2023-04-05T12:04:34;14.10;69.80
43346;DHT22;28937;51.160;4.146;2023-04-05T12:07:17;14.10;70.50
43346;DHT22;28937;51.160;4.146;2023-04-05T12:10:01;14.10;72.70
43346;DHT22;28937;51.160;4.146;2023-04-05T12:12:32;14.20;71.40
43346;DHT22;28937;51.160;4.146;2023-04-05T12:14:58;14.20;69.80
43346;DHT22;28937;51.160;4.146;2023-04-05T12:17:44;14.20;69.20
43346;DHT22;28937;51.160;4.146;2023-04-05T12:20:12;14.20;68.80
43346;DHT22;28937;51.160;4.146;2023-04-05T12:22:39;14.20;70.90
43346;DHT22;28937;51.160;4.146;2023-04-05T12:25:05;14.20;73.40
43346;DHT22;28937;51.160;4.146;2023-04-05T12:27:32;14.30;73.60
43346;DHT22;28937;51.160;4.146;2023-04-05T12:30:17;14.30;66.80
43346;DHT22;28937;51.160;4.146;2023-04-05T12:32:44;14.30;66.40
43346;DHT22;28937;51.160;4.146;2023-04-05T12:35:24;14.30;72.30
43346;DHT22;28937;51.160;4.146;2023-04-05T12:37:57;14.40;73.50
43346;DHT22;28937;51.160;4.146;2023-04-05T12:40:24;14.30;72.10
43346;DHT22;28937;51.160;4.146;2023-04-05T12:42:50;14.40;66.50
43346;DHT22;28937;51.160;4.146;2023-04-05T12:45:16;14.40;67.70
43346;DHT22;28937;51.160;4.146;2023-04-05T12:47:59;14.40;69.30
43346;DHT22;28937;51.160;4.146;2023-04-05T12:50:29;14.40;71.30
43346;DHT22;28937;51.160;4.146;2023-04-05T12:53:04;14.40;71.70
43346;DHT22;28937;51.160;4.146;2023-04-05T12:55:30;14.40;71.00
43346;DHT22;28937;51.160;4.146;2023-04-05T12:57:58;14.50;72.10
43346;DHT22;28937;51.160;4.146;2023-04-05T13:00:25;14.50;69.60
43346;DHT22;28937;51.160;4.146;2023-04-05T13:02:53;14.50;69.00
43346;DHT22;28937;51.160;4.146;2023-04-05T13:05:24;14.60;69.90
43346;DHT22;28937;51.160;4.146;2023-04-05T13:07:50;14.60;71.90
43346;DHT22;28937;51.160;4.146;2023-04-05T13:10:19;14.60;71.70
43346;DHT22;28937;51.160;4.146;2023-04-05T13:12:45;14.70;72.20
43346;DHT22;28937;51.160;4.146;2023-04-05T13:15:12;14.70;71.90
43346;DHT22;28937;51.160;4.146;2023-04-05T13:17:39;14.70;71.70
43346;DHT22;28937;51.160;4.146;2023-04-05T13:20:05;14.70;65.80
43346;DHT22;28937;51.160;4.146;2023-04-05T13:22:31;14.70;69.00
43346;DHT22;28937;51.160;4.146;2023-04-05T13:24:57;14.70;67.80
43346;DHT22;28937;51.160;4.146;2023-04-05T13:27:22;14.80;68.60
43346;DHT22;28937;51.160;4.146;2023-04-05T13:29:48;14.80;69.40
43346;DHT22;28937;51.160;4.146;2023-04-05T13:32:13;14.80;69.40
43346;DHT22;28937;51.160;4.146;2023-04-05T13:34:39;14.80;67.70
43346;DHT22;28937;51.160;4.146;2023-04-05T13:37:05;14.80;66.60
43346;DHT22;28937;51.160;4.146;2023-04-05T13:39:32;14.80;64.40
43346;DHT22;28937;51.160;4.146;2023-04-05T13:41:59;14.80;65.10
43346;DHT22;28937;51.160;4.146;2023-04-05T13:44:25;14.90;63.20
43346;DHT22;28937;51.160;4.146;2023-04-05T13:46:51;14.80;62.20
43346;DHT22;28937;51.160;4.146;2023-04-05T13:49:17;14.90;61.30
43346;DHT22;28937;51.160;4.146;2023-04-05T13:51:42;14.90;61.90
43346;DHT22;28937;51.160;4.146;2023-04-05T13:54:08;14.90;62.80
43346;DHT22;28937;51.160;4.146;2023-04-05T13:56:36;14.90;62.30
43346;DHT22;28937;51.160;4.146;2023-04-05T13:59:02;14.90;61.20
43346;DHT22;28937;51.160;4.146;2023-04-05T14:01:27;14.90;62.30
43346;DHT22;28937;51.160;4.146;2023-04-05T14:03:53;14.90;62.70
43346;DHT22;28937;51.160;4.146;2023-04-05T14:06:19;14.90;62.20
43346;DHT22;28937;51.160;4.146;2023-04-05T14:08:44;14.90;62.50
43346;DHT22;28937;51.160;4.146;2023-04-05T14:11:10;15.00;65.40
43346;DHT22;28937;51.160;4.146;2023-04-05T14:13:35;15.00;66.60
43346;DHT22;28937;51.160;4.146;2023-04-05T14:16:01;15.00;66.90
43346;DHT22;28937;51.160;4.146;2023-04-05T14:18:27;15.00;66.90
43346;DHT22;28937;51.160;4.146;2023-04-05T14:20:52;15.00;67.40
43346;DHT22;28937;51.160;4.146;2023-04-05T14:23:20;15.10;66.60
43346;DHT22;28937;51.160;4.146;2023-04-05T14:25:46;15.10;65.80
43346;DHT22;28937;51.160;4.146;2023-04-05T14:28:12;15.10;64.50
43346;DHT22;28937;51.160;4.146;2023-04-05T14:30:37;15.10;66.20
43346;DHT22;28937;51.160;4.146;2023-04-05T14:33:03;15.10;65.70
43346;DHT22;28937;51.160;4.146;2023-04-05T14:35:29;15.10;66.40
43346;DHT22;28937;51.160;4.146;2023-04-05T14:37:54;15.20;66.80
43346;DHT22;28937;51.160;4.146;2023-04-05T14:40:20;15.20;67.20
43346;DHT22;28937;51.160;4.146;2023-04-05T14:42:45;15.20;64.50
43346;DHT22;28937;51.160;4.146;2023-04-05T14:45:11;15.20;62.30
43346;DHT22;28937;51.160;4.146;2023-04-05T14:47:37;15.20;65.80
43346;DHT22;28937;51.160;4.146;2023-04-05T14:50:03;15.20;65.70
43346;DHT22;28937;51.160;4.146;2023-04-05T14:52:32;15.20;66.30
43346;DHT22;28937;51.160;4.146;2023-04-05T14:54:57;15.30;67.40
43346;DHT22;28937;51.160;4.146;2023-04-05T14:57:23;15.30;67.60
43346;DHT22;28937;51.160;4.146;2023-04-05T14:59:48;15.30;66.80
43346;DHT22;28937;51.160;4.146;2023-04-05T15:02:14;15.40;67.20
43346;DHT22;28937;51.160;4.146;2023-04-05T15:04:40;15.40;66.00
43346;DHT22;28937;51.160;4.146;2023-04-05T15:07:06;15.40;61.60
43346;DHT22;28937;51.160;4.146;2023-04-05T15:09:31;15.40;61.20
43346;DHT22;28937;51.160;4.146;2023-04-05T15:11:57;15.30;62.60
43346;DHT22;28937;51.160;4.146;2023-04-05T15:14:23;15.40;63.90
43346;DHT22;28937;51.160;4.146;2023-04-05T15:16:49;15.30;62.50
43346;DHT22;28937;51.160;4.146;2023-04-05T15:19:14;15.40;60.70
43346;DHT22;28937;51.160;4.146;2023-04-05T15:21:40;15.40;60.00
43346;DHT22;28937;51.160;4.146;2023-04-05T15:24:09;15.40;63.40
43346;DHT22;28937;51.160;4.146;2023-04-05T15:26:35;15.40;62.30
43346;DHT22;28937;51.160;4.146;2023-04-05T15:29:00;15.40;65.20
43346;DHT22;28937;51.160;4.146;2023-04-05T15:31:26;15.40;65.90
43346;DHT22;28937;51.160;4.146;2023-04-05T15:33:52;15.40;66.20
43346;DHT22;28937;51.160;4.146;2023-04-05T15:36:17;15.40;66.10
43346;DHT22;28937;51.160;4.146;2023-04-05T15:38:43;15.50;64.00
43346;DHT22;28937;51.160;4.146;2023-04-05T15:41:09;15.60;66.30
43346;DHT22;28937;51.160;4.146;2023-04-05T15:43:36;15.50;62.50
43346;DHT22;28937;51.160;4.146;2023-04-05T15:46:03;15.60;63.10
43346;DHT22;28937;51.160;4.146;2023-04-05T15:48:29;15.60;62.00
43346;DHT22;28937;51.160;4.146;2023-04-05T15:50:55;15.60;62.00
43346;DHT22;28937;51.160;4.146;2023-04-05T15:53:20;15.60;59.70
43346;DHT22;28937;51.160;4.146;2023-04-05T15:55:46;15.60;60.90
43346;DHT22;28937;51.160;4.146;2023-04-05T15:58:11;15.60;62.60
43346;DHT22;28937;51.160;4.146;2023-04-05T16:00:37;15.60;62.30
43346;DHT22;28937;51.160;4.146;2023-04-05T16:03:03;15.60;61.20
43346;DHT22;28937;51.160;4.146;2023-04-05T16:05:29;15.60;61.30
43346;DHT22;28937;51.160;4.146;2023-04-05T16:07:55;15.60;62.00
43346;DHT22;28937;51.160;4.146;2023-04-05T16:10:20;15.60;62.70
43346;DHT22;28937;51.160;4.146;2023-04-05T16:12:46;15.70;64.30
43346;DHT22;28937;51.160;4.146;2023-04-05T16:15:12;15.70;62.00
43346;DHT22;28937;51.160;4.146;2023-04-05T16:17:37;15.60;60.70
43346;DHT22;28937;51.160;4.146;2023-04-05T16:20:03;15.60;60.00